createdAt,value
2018-09-08T00:00:12.130Z,18.60
2018-09-08T00:02:41.225Z,18.60
2018-09-08T00:05:10.366Z,18.60
2018-09-08T00:07:39.683Z,18.70
2018-09-08T00:10:10.505Z,18.60
2018-09-08T00:12:39.552Z,18.60
2018-09-08T00:15:13.792Z,18.60
2018-09-08T00:17:48.232Z,18.50
2018-09-08T00:20:22.540Z,18.40
2018-09-08T00:22:56.692Z,18.40
2018-09-08T00:25:30.783Z,18.30
2018-09-08T00:29:05.002Z,18.30
2018-09-08T00:31:34.277Z,18.20
2018-09-08T00:34:03.472Z,18.20
2018-09-08T00:36:32.520Z,18.10
2018-09-08T00:39:01.504Z,18.10
2018-09-08T00:41:30.805Z,18.10
2018-09-08T00:43:59.919Z,18.10
2018-09-08T00:46:28.911Z,18.10
2018-09-08T00:48:57.987Z,18.10
2018-09-08T00:51:27.090Z,18.00
2018-09-08T00:53:56.209Z,18.00
2018-09-08T00:56:25.285Z,18.00
2018-09-08T00:58:59.601Z,18.00
2018-09-08T01:01:28.575Z,18.00
2018-09-08T01:03:57.725Z,18.10
2018-09-08T01:06:26.784Z,18.10
2018-09-08T01:08:55.765Z,18.10
2018-09-08T01:11:25.137Z,18.10
2018-09-08T01:13:54.171Z,18.10
2018-09-08T01:16:23.233Z,18.10
2018-09-08T01:18:52.353Z,18.10
2018-09-08T01:21:21.359Z,18.10
2018-09-08T01:23:51.020Z,18.10
2018-09-08T01:26:20.772Z,18.10
2018-09-08T01:28:50.879Z,18.10
2018-09-08T01:31:20.409Z,18.00
2018-09-08T01:33:49.480Z,18.10
2018-09-08T01:36:18.579Z,18.00
2018-09-08T01:38:47.893Z,18.00
2018-09-08T01:41:17.283Z,18.00
2018-09-08T01:43:46.268Z,18.00
2018-09-08T01:46:15.381Z,17.90
2018-09-08T01:48:44.459Z,17.90
2018-09-08T01:51:13.619Z,17.90
2018-09-08T01:53:42.772Z,18.00
2018-09-08T01:56:11.848Z,17.90
2018-09-08T01:58:41.031Z,17.90
2018-09-08T02:01:10.146Z,17.90
2018-09-08T02:03:39.245Z,17.80
2018-09-08T02:06:08.464Z,17.70
2018-09-08T02:08:37.535Z,17.60
2018-09-08T02:11:06.736Z,17.60
2018-09-08T02:13:35.823Z,17.60
2018-09-08T02:16:05.016Z,17.60
2018-09-08T02:18:34.257Z,17.60
2018-09-08T02:21:03.396Z,17.70
2018-09-08T02:23:32.507Z,17.70
2018-09-08T02:26:02.576Z,17.70
2018-09-08T02:28:32.444Z,17.80
2018-09-08T02:31:01.544Z,17.70
2018-09-08T02:33:30.555Z,17.70
2018-09-08T02:35:59.637Z,17.70
2018-09-08T02:38:28.625Z,17.60
2018-09-08T02:40:57.617Z,17.60
2018-09-08T02:43:26.631Z,17.60
2018-09-08T02:45:55.604Z,17.60
2018-09-08T02:48:24.567Z,17.60
2018-09-08T02:50:52.304Z,17.50
2018-09-08T02:53:19.963Z,17.50
2018-09-08T02:55:47.728Z,17.50
2018-09-08T02:58:15.296Z,17.40
2018-09-08T03:00:43.057Z,17.40
2018-09-08T03:03:10.813Z,17.30
2018-09-08T03:05:38.405Z,17.30
2018-09-08T03:08:06.077Z,17.20
2018-09-08T03:10:33.796Z,17.20
2018-09-08T03:13:01.559Z,17.00
2018-09-08T03:15:29.220Z,17.00
2018-09-08T03:17:56.889Z,17.00
2018-09-08T03:20:24.600Z,17.00
2018-09-08T03:22:52.233Z,16.90
2018-09-08T03:25:19.866Z,16.90
2018-09-08T03:27:47.637Z,16.80
2018-09-08T03:30:15.393Z,16.80
2018-09-08T03:32:43.096Z,16.80
2018-09-08T03:35:10.817Z,16.70
2018-09-08T03:37:38.478Z,16.70
2018-09-08T03:40:06.139Z,16.60
2018-09-08T03:42:33.800Z,16.60
2018-09-08T03:45:01.461Z,16.60
2018-09-08T03:47:29.327Z,16.60
2018-09-08T03:49:57.037Z,16.60
2018-09-08T03:52:24.753Z,16.70
2018-09-08T03:54:52.526Z,16.70
2018-09-08T03:57:20.279Z,16.70
2018-09-08T03:59:47.947Z,16.80
2018-09-08T04:02:15.637Z,16.80
2018-09-08T04:04:44.739Z,16.80
2018-09-08T04:07:13.833Z,16.80
2018-09-08T04:09:43.047Z,16.70
2018-09-08T04:12:12.121Z,16.70
2018-09-08T04:14:41.211Z,16.80
2018-09-08T04:17:10.312Z,16.70
2018-09-08T04:19:39.411Z,16.80
2018-09-08T04:22:08.615Z,16.80
2018-09-08T04:24:37.798Z,16.80
2018-09-08T04:27:06.996Z,16.70
2018-09-08T04:29:36.128Z,16.70
2018-09-08T04:32:05.292Z,16.70
2018-09-08T04:34:34.387Z,16.70
2018-09-08T04:37:03.397Z,16.70
2018-09-08T04:39:32.365Z,16.70
2018-09-08T04:42:01.349Z,16.70
2018-09-08T04:44:30.318Z,16.70
2018-09-08T04:46:59.485Z,16.70
2018-09-08T04:49:28.553Z,16.60
2018-09-08T04:51:57.637Z,16.60
2018-09-08T04:54:26.728Z,16.50
2018-09-08T04:56:55.735Z,16.60
2018-09-08T04:59:24.744Z,16.60
2018-09-08T05:01:53.820Z,16.60
2018-09-08T05:04:22.801Z,16.60
2018-09-08T05:06:52.008Z,16.60
2018-09-08T05:09:21.103Z,16.60
2018-09-08T05:11:50.195Z,16.60
2018-09-08T05:14:19.282Z,16.60
2018-09-08T05:16:48.287Z,16.60
2018-09-08T05:19:17.280Z,16.70
2018-09-08T05:21:46.259Z,16.60
2018-09-08T05:24:15.392Z,16.60
2018-09-08T05:26:44.536Z,16.60
2018-09-08T05:29:13.648Z,16.60
2018-09-08T05:31:42.839Z,16.60
2018-09-08T05:34:11.823Z,16.50
2018-09-08T05:36:40.848Z,16.50
2018-09-08T05:39:09.813Z,16.60
2018-09-08T05:41:38.921Z,16.70
2018-09-08T05:44:07.926Z,16.60
2018-09-08T05:46:36.893Z,16.70
2018-09-08T05:49:06.058Z,16.70
2018-09-08T05:51:35.201Z,16.80
2018-09-08T05:54:04.403Z,16.80
2018-09-08T05:56:33.494Z,16.80
2018-09-08T05:59:02.583Z,16.80
2018-09-08T06:01:31.589Z,16.80
2018-09-08T06:04:00.937Z,16.80
2018-09-08T06:06:30.196Z,16.80
2018-09-08T06:08:59.156Z,16.80
2018-09-08T06:11:28.262Z,16.80
2018-09-08T06:13:57.400Z,16.90
2018-09-08T06:16:26.361Z,16.90
2018-09-08T06:18:55.375Z,16.90
2018-09-08T06:21:24.756Z,16.90
2018-09-08T06:23:53.623Z,16.90
2018-09-08T06:26:22.762Z,16.90
2018-09-08T06:28:52.252Z,16.90
2018-09-08T06:31:21.463Z,16.90
2018-09-08T06:33:50.698Z,16.90
2018-09-08T06:36:19.636Z,16.80
2018-09-08T06:38:48.740Z,16.80
2018-09-08T06:41:18.062Z,16.80
2018-09-08T06:43:47.264Z,16.80
2018-09-08T06:46:16.356Z,16.90
2018-09-08T06:48:45.351Z,16.80
2018-09-08T06:51:14.629Z,16.80
2018-09-08T06:53:43.816Z,16.90
2018-09-08T06:56:13.007Z,16.90
2018-09-08T06:58:41.998Z,16.90
2018-09-08T07:01:11.072Z,16.90
2018-09-08T07:03:40.184Z,16.90
2018-09-08T07:06:09.364Z,16.90
2018-09-08T07:08:38.548Z,17.00
2018-09-08T07:11:07.661Z,17.00
2018-09-08T07:13:37.254Z,17.00
2018-09-08T07:16:06.792Z,17.00
2018-09-08T07:18:35.986Z,17.00
2018-09-08T07:21:05.259Z,17.00
2018-09-08T07:23:34.464Z,17.10
2018-09-08T07:26:03.839Z,17.10
2018-09-08T07:28:33.379Z,17.10
2018-09-08T07:31:02.547Z,17.20
2018-09-08T07:33:31.592Z,17.20
2018-09-08T07:36:00.630Z,17.20
2018-09-08T07:38:29.761Z,17.30
2018-09-08T07:40:58.998Z,17.30
2018-09-08T07:43:28.324Z,17.30
2018-09-08T07:45:57.455Z,17.40
2018-09-08T07:48:27.383Z,17.40
2018-09-08T07:50:56.361Z,17.50
2018-09-08T07:53:25.429Z,17.50
2018-09-08T07:55:54.548Z,17.50
2018-09-08T07:58:23.634Z,17.60
2018-09-08T08:00:53.020Z,17.60
2018-09-08T08:03:22.116Z,17.60
2018-09-08T08:05:51.288Z,17.70
2018-09-08T08:08:20.431Z,17.70
2018-09-08T08:10:49.394Z,17.70
2018-09-08T08:13:18.304Z,17.80
2018-09-08T08:15:47.392Z,17.80
2018-09-08T08:18:16.512Z,17.80
2018-09-08T08:20:45.606Z,17.90
2018-09-08T08:23:14.652Z,17.90
2018-09-08T08:25:43.699Z,18.00
2018-09-08T08:28:12.867Z,18.00
2018-09-08T08:30:41.711Z,18.10
2018-09-08T08:33:10.840Z,18.10
2018-09-08T08:35:40.156Z,18.20
2018-09-08T08:38:09.413Z,18.20
2018-09-08T08:40:38.519Z,18.20
2018-09-08T08:43:07.873Z,18.30
2018-09-08T08:45:36.839Z,18.30
2018-09-08T08:48:05.928Z,18.30
2018-09-08T08:50:46.053Z,18.30
2018-09-08T08:53:30.138Z,18.30
2018-09-08T08:55:59.336Z,18.40
2018-09-08T09:00:08.236Z,18.40
2018-09-08T09:02:37.355Z,18.50
2018-09-08T09:05:06.596Z,18.50
2018-09-08T09:07:36.308Z,18.50
2018-09-08T09:10:05.249Z,18.60
2018-09-08T09:12:34.572Z,18.60
2018-09-08T09:15:03.725Z,18.70
2018-09-08T09:17:32.711Z,18.70
2018-09-08T09:20:12.608Z,18.80
2018-09-08T09:22:52.873Z,18.90
2018-09-08T09:25:22.089Z,18.90
2018-09-08T09:27:51.938Z,18.90
2018-09-08T09:30:21.812Z,18.90
2018-09-08T09:32:50.952Z,19.00
2018-09-08T09:35:21.410Z,19.10
2018-09-08T09:37:50.402Z,19.10
2018-09-08T09:40:20.752Z,19.10
2018-09-08T09:42:50.019Z,19.20
2018-09-08T09:45:19.247Z,19.30
2018-09-08T09:47:49.272Z,19.30
2018-09-08T09:50:18.067Z,19.40
2018-09-08T09:52:47.141Z,19.40
2018-09-08T09:55:16.210Z,19.50
2018-09-08T09:57:45.314Z,19.50
2018-09-08T10:00:19.548Z,19.60
2018-09-08T10:02:49.520Z,19.70
2018-09-08T10:05:20.639Z,19.70
2018-09-08T10:07:50.141Z,19.80
2018-09-08T10:10:20.810Z,19.80
2018-09-08T10:12:50.112Z,19.90
2018-09-08T10:15:19.217Z,20.00
2018-09-08T10:17:48.311Z,20.10
2018-09-08T10:20:18.668Z,20.20
2018-09-08T10:22:47.955Z,20.20
2018-09-08T10:25:18.126Z,20.30
2018-09-08T10:27:47.871Z,20.40
2018-09-08T10:30:17.437Z,20.50
2018-09-08T10:32:47.104Z,20.60
2018-09-08T10:35:16.228Z,20.70
2018-09-08T10:37:45.355Z,20.80
2018-09-08T10:40:14.522Z,20.80
2018-09-08T10:42:43.816Z,21.00
2018-09-08T10:45:12.930Z,21.10
2018-09-08T10:47:41.945Z,21.10
2018-09-08T10:50:11.820Z,21.20
2018-09-08T10:52:42.051Z,21.20
2018-09-08T10:55:11.164Z,21.30
2018-09-08T10:57:40.283Z,21.40
2018-09-08T11:00:09.861Z,21.40
2018-09-08T11:02:39.241Z,21.50
2018-09-08T11:05:08.204Z,21.60
2018-09-08T11:07:37.246Z,21.70
2018-09-08T11:10:06.887Z,21.80
2018-09-08T11:12:36.084Z,21.90
2018-09-08T11:15:05.471Z,22.00
2018-09-08T11:17:35.489Z,22.10
2018-09-08T11:20:04.448Z,22.20
2018-09-08T11:22:33.484Z,22.30
2018-09-08T11:25:02.590Z,22.40
2018-09-08T11:27:31.899Z,22.50
2018-09-08T11:30:00.996Z,22.50
2018-09-08T11:32:30.110Z,22.60
2018-09-08T11:34:59.263Z,22.70
2018-09-08T11:37:28.343Z,22.70
2018-09-08T11:39:57.408Z,22.80
2018-09-08T11:42:26.439Z,22.90
2018-09-08T11:44:55.515Z,22.90
2018-09-08T11:47:24.600Z,23.00
2018-09-08T11:49:53.844Z,23.10
2018-09-08T11:52:22.902Z,23.30
2018-09-08T11:54:52.005Z,23.40
2018-09-08T11:57:21.132Z,23.40
2018-09-08T11:59:50.210Z,23.50
2018-09-08T12:02:19.392Z,23.50
2018-09-08T12:04:48.527Z,23.60
2018-09-08T12:07:17.494Z,23.70
2018-09-08T12:09:46.488Z,23.80
2018-09-08T12:12:15.547Z,23.90
2018-09-08T12:14:44.665Z,23.90
2018-09-08T12:17:13.770Z,24.10
2018-09-08T12:19:42.961Z,24.10
2018-09-08T12:22:12.078Z,24.20
2018-09-08T12:24:41.366Z,24.30
2018-09-08T12:27:10.443Z,24.50
2018-09-08T12:29:39.473Z,24.50
2018-09-08T12:32:08.421Z,24.60
2018-09-08T12:34:37.555Z,24.70
2018-09-08T12:37:06.624Z,24.70
2018-09-08T12:39:35.731Z,24.90
2018-09-08T12:42:04.892Z,25.00
2018-09-08T12:44:33.852Z,25.00
2018-09-08T12:47:03.052Z,25.20
2018-09-08T12:49:32.185Z,25.30
2018-09-08T12:52:01.407Z,25.30
2018-09-08T12:54:30.606Z,25.50
2018-09-08T12:56:59.686Z,25.60
2018-09-08T12:59:28.838Z,25.70
2018-09-08T13:01:57.850Z,25.70
2018-09-08T13:04:26.981Z,25.80
2018-09-08T13:06:56.087Z,26.00
2018-09-08T13:09:25.278Z,26.10
2018-09-08T13:11:54.598Z,26.10
2018-09-08T13:14:23.921Z,26.30
2018-09-08T13:16:52.946Z,26.40
2018-09-08T13:19:22.061Z,26.50
2018-09-08T13:21:51.158Z,26.60
2018-09-08T13:24:20.371Z,26.70
2018-09-08T13:26:49.276Z,26.80
2018-09-08T13:29:18.519Z,26.80
2018-09-08T13:31:47.599Z,26.90
2018-09-08T13:34:16.838Z,27.00
2018-09-08T13:36:45.916Z,27.10
2018-09-08T13:39:15.109Z,27.20
2018-09-08T13:41:44.308Z,27.30
2018-09-08T13:44:13.406Z,27.40
2018-09-08T13:46:42.609Z,27.40
2018-09-08T13:49:11.728Z,27.50
2018-09-08T13:51:40.896Z,27.60
2018-09-08T13:54:09.897Z,27.60
2018-09-08T13:56:38.985Z,27.70
2018-09-08T13:59:08.187Z,27.80
2018-09-08T14:01:37.214Z,27.80
2018-09-08T14:04:06.488Z,27.80
2018-09-08T14:06:35.556Z,27.90
2018-09-08T14:09:04.967Z,27.90
2018-09-08T14:11:33.988Z,28.00
2018-09-08T14:14:03.087Z,28.00
2018-09-08T14:16:32.032Z,28.10
2018-09-08T14:19:01.266Z,28.10
2018-09-08T14:21:30.244Z,28.20
2018-09-08T14:23:59.229Z,28.30
2018-09-08T14:26:28.576Z,28.30
2018-09-08T14:28:57.732Z,28.30
2018-09-08T14:31:26.903Z,28.40
2018-09-08T14:33:55.958Z,28.40
2018-09-08T14:36:25.017Z,28.50
2018-09-08T14:38:54.142Z,28.50
2018-09-08T14:41:23.198Z,28.50
2018-09-08T14:43:52.303Z,28.50
2018-09-08T14:46:21.426Z,28.60
2018-09-08T14:48:50.237Z,28.60
2018-09-08T14:51:19.067Z,28.60
2018-09-08T14:53:48.167Z,28.60
2018-09-08T14:56:17.261Z,28.60
2018-09-08T14:58:46.276Z,28.60
2018-09-08T15:01:15.357Z,28.70
2018-09-08T15:03:44.581Z,28.70
2018-09-08T15:06:13.643Z,28.70
2018-09-08T15:08:42.493Z,28.70
2018-09-08T15:11:11.634Z,28.70
2018-09-08T15:13:40.449Z,28.70
2018-09-08T15:16:09.544Z,28.80
2018-09-08T15:18:38.717Z,28.70
2018-09-08T15:21:07.899Z,28.80
2018-09-08T15:23:37.087Z,28.70
2018-09-08T15:26:05.988Z,28.70
2018-09-08T15:28:35.008Z,28.70
2018-09-08T15:31:03.825Z,28.70
2018-09-08T15:33:32.865Z,28.70
2018-09-08T15:36:02.056Z,28.60
2018-09-08T15:38:31.031Z,28.60
2018-09-08T15:41:00.068Z,28.60
2018-09-08T15:43:29.143Z,28.60
2018-09-08T15:45:58.090Z,28.60
2018-09-08T15:48:27.153Z,28.50
2018-09-08T15:50:56.220Z,28.50
2018-09-08T15:53:25.439Z,28.50
2018-09-08T15:55:54.631Z,28.50
2018-09-08T15:58:23.788Z,28.40
2018-09-08T16:00:52.759Z,28.30
2018-09-08T16:03:21.888Z,28.30
2018-09-08T16:05:51.049Z,28.30
2018-09-08T16:08:20.089Z,28.30
2018-09-08T16:10:49.217Z,28.30
2018-09-08T16:13:18.269Z,28.20
2018-09-08T16:15:47.368Z,28.20
2018-09-08T16:18:16.468Z,28.20
2018-09-08T16:20:45.292Z,28.10
2018-09-08T16:23:14.116Z,28.00
2018-09-08T16:25:42.950Z,28.00
2018-09-08T16:28:11.769Z,27.90
2018-09-08T16:30:40.581Z,27.90
2018-09-08T16:33:09.720Z,27.90
2018-09-08T16:35:38.537Z,27.80
2018-09-08T16:38:07.361Z,27.80
2018-09-08T16:40:36.206Z,27.70
2018-09-08T16:43:05.060Z,27.60
2018-09-08T16:45:34.057Z,27.60
2018-09-08T16:48:03.224Z,27.50
2018-09-08T16:50:32.354Z,27.40
2018-09-08T16:53:01.542Z,27.30
2018-09-08T16:55:30.693Z,27.30
2018-09-08T16:57:59.941Z,27.20
2018-09-08T17:00:28.784Z,27.10
2018-09-08T17:02:57.986Z,27.10
2018-09-08T17:05:27.201Z,27.00
2018-09-08T17:07:55.998Z,27.00
2018-09-08T17:10:25.088Z,26.90
2018-09-08T17:12:54.074Z,26.80
2018-09-08T17:15:23.214Z,26.70
2018-09-08T17:17:52.087Z,26.70
2018-09-08T17:20:21.191Z,26.60
2018-09-08T17:22:50.177Z,26.60
2018-09-08T17:25:19.309Z,26.50
2018-09-08T17:27:48.100Z,26.40
2018-09-08T17:30:16.936Z,26.40
2018-09-08T17:33:36.053Z,26.30
2018-09-08T17:36:05.064Z,26.20
2018-09-08T17:38:33.926Z,26.10
2018-09-08T17:41:02.757Z,26.10
2018-09-08T17:43:31.674Z,26.00
2018-09-08T17:46:00.564Z,25.90
2018-09-08T17:48:29.408Z,25.80
2018-09-08T17:50:58.237Z,25.80
2018-09-08T17:54:37.906Z,25.70
2018-09-08T17:57:06.804Z,25.60
2018-09-08T17:59:35.639Z,25.60
2018-09-08T18:02:04.566Z,25.50
2018-09-08T18:04:33.413Z,25.40
2018-09-08T18:07:02.968Z,25.40
2018-09-08T18:09:31.874Z,25.30
2018-09-08T18:12:00.723Z,25.20
2018-09-08T18:14:29.585Z,25.10
2018-09-08T18:16:58.425Z,25.10
2018-09-08T18:19:27.233Z,25.00
2018-09-08T18:21:56.044Z,25.00
2018-09-08T18:24:25.131Z,24.90
2018-09-08T18:26:53.997Z,24.90
2018-09-08T18:29:22.890Z,24.80
2018-09-08T18:31:52.045Z,24.70
2018-09-08T18:34:21.215Z,24.70
2018-09-08T18:36:50.514Z,24.60
2018-09-08T18:39:19.349Z,24.60
2018-09-08T18:41:48.164Z,24.50
2018-09-08T18:44:17.001Z,24.40
2018-09-08T18:46:46.204Z,24.40
2018-09-08T18:49:15.007Z,24.30
2018-09-08T18:51:44.126Z,24.20
2018-09-08T18:54:13.300Z,24.20
2018-09-08T18:56:42.205Z,24.20
2018-09-08T18:59:11.032Z,24.10
2018-09-08T19:01:39.813Z,24.00
2018-09-08T19:04:09.378Z,24.00
2018-09-08T19:06:38.547Z,23.90
2018-09-08T19:09:07.906Z,23.70
2018-09-08T19:11:36.726Z,23.70
2018-09-08T19:14:05.904Z,23.70
2018-09-08T19:16:34.947Z,23.70
2018-09-08T19:19:04.039Z,23.70
2018-09-08T19:21:32.864Z,23.70
2018-09-08T19:24:06.980Z,23.60
2018-09-08T19:26:36.193Z,23.50
2018-09-08T19:29:10.376Z,23.50
2018-09-08T19:31:39.580Z,23.50
2018-09-08T19:34:08.645Z,23.50
2018-09-08T19:36:37.629Z,23.40
2018-09-08T19:39:08.726Z,23.40
2018-09-08T19:41:37.764Z,23.40
2018-09-08T19:44:06.607Z,23.40
2018-09-08T19:47:44.208Z,23.30
2018-09-08T19:50:13.377Z,23.20
2018-09-08T19:52:47.576Z,23.20
2018-09-08T19:55:16.689Z,23.20
2018-09-08T19:57:50.732Z,23.20
2018-09-08T20:00:19.796Z,23.10
2018-09-08T20:02:48.979Z,23.00
2018-09-08T20:05:17.819Z,22.90
2018-09-08T20:07:46.957Z,22.90
2018-09-08T20:10:15.979Z,22.90
2018-09-08T20:12:45.136Z,22.90
2018-09-08T20:17:02.544Z,22.80
2018-09-08T20:19:32.372Z,22.70
2018-09-08T20:24:31.485Z,22.50
2018-09-08T20:27:00.538Z,22.50
2018-09-08T20:29:29.531Z,22.50
2018-09-08T20:31:58.394Z,22.50
2018-09-08T20:34:27.358Z,22.50
2018-09-08T20:36:56.606Z,22.40
2018-09-08T20:39:25.406Z,22.40
2018-09-08T20:41:54.264Z,22.30
2018-09-08T20:44:23.051Z,22.30
2018-09-08T20:46:51.818Z,22.30
2018-09-08T20:49:44.573Z,22.30
2018-09-08T20:52:13.645Z,22.20
2018-09-08T20:54:42.424Z,22.20
2018-09-08T20:57:11.229Z,22.10
2018-09-08T20:59:40.352Z,22.10
2018-09-08T21:02:09.684Z,22.10
2018-09-08T21:04:38.528Z,22.00
2018-09-08T21:07:09.272Z,22.00
2018-09-08T21:09:38.504Z,21.90
2018-09-08T21:12:07.532Z,21.90
2018-09-08T21:14:36.671Z,21.90
2018-09-08T21:17:05.585Z,21.80
2018-09-08T21:19:34.439Z,21.80
2018-09-08T21:22:03.232Z,21.70
2018-09-08T21:24:32.000Z,21.70
2018-09-08T21:27:00.826Z,21.60
2018-09-08T21:29:29.596Z,21.50
2018-09-08T21:31:58.418Z,21.50
2018-09-08T21:34:27.218Z,21.40
2018-09-08T21:36:56.309Z,21.40
2018-09-08T21:39:25.111Z,21.30
2018-09-08T21:41:53.926Z,21.30
2018-09-08T21:44:22.724Z,21.30
2018-09-08T21:46:51.532Z,21.20
2018-09-08T21:49:20.313Z,21.20
2018-09-08T21:51:49.128Z,21.20
2018-09-08T21:54:17.925Z,21.10
2018-09-08T21:56:46.753Z,21.00
2018-09-08T21:59:15.838Z,21.00
2018-09-08T22:01:45.021Z,20.90
2018-09-08T22:04:14.128Z,20.90
2018-09-08T22:06:43.216Z,20.90
2018-09-08T22:09:12.417Z,20.90
2018-09-08T22:11:41.663Z,20.90
2018-09-08T22:14:10.829Z,20.90
2018-09-08T22:16:39.996Z,20.90
2018-09-08T22:19:09.201Z,20.90
2018-09-08T22:21:37.989Z,20.90
2018-09-08T22:24:07.298Z,20.80
2018-09-08T22:26:36.336Z,20.80
2018-09-08T22:29:05.701Z,20.80
2018-09-08T22:31:34.768Z,20.70
2018-09-08T22:34:03.699Z,20.70
2018-09-08T22:36:32.488Z,20.70
2018-09-08T22:39:01.485Z,20.70
2018-09-08T22:41:30.537Z,20.60
2018-09-08T22:43:59.648Z,20.60
2018-09-08T22:46:28.627Z,20.60
2018-09-08T22:48:57.728Z,20.60
2018-09-08T22:51:26.840Z,20.50
2018-09-08T22:53:55.876Z,20.50
2018-09-08T22:56:25.031Z,20.50
2018-09-08T22:58:54.283Z,20.40
2018-09-08T23:01:23.415Z,20.40
2018-09-08T23:03:52.219Z,20.40
2018-09-08T23:06:21.017Z,20.30
2018-09-08T23:08:49.851Z,20.30
2018-09-08T23:11:18.963Z,20.30
2018-09-08T23:13:47.773Z,20.20
2018-09-08T23:16:16.948Z,20.10
2018-09-08T23:18:45.987Z,20.10
2018-09-08T23:21:14.795Z,20.00
2018-09-08T23:23:43.943Z,20.00
2018-09-08T23:26:13.013Z,20.00
2018-09-08T23:28:42.113Z,19.90
2018-09-08T23:31:10.979Z,19.80
2018-09-08T23:33:40.117Z,19.80
2018-09-08T23:36:09.253Z,19.70
2018-09-08T23:38:38.319Z,19.70
2018-09-08T23:41:07.292Z,19.60
2018-09-08T23:43:36.433Z,19.60
2018-09-08T23:46:05.698Z,19.60
2018-09-08T23:48:34.569Z,19.50
2018-09-08T23:51:03.589Z,19.50
2018-09-08T23:53:32.371Z,19.50
2018-09-08T23:56:01.439Z,19.30
2018-09-08T23:58:30.541Z,19.40
